首页
METAR-TAF:

METAR-TAF

机场 :

Magic Valley Regional Airport (Joslin Field)

特溫福爾斯, 爱达荷州, 美国

纬度: 42-28-43N, 经度: 114-28-34W, 海拔: 1265米

当前天气观测

该预报发布于1小时和2分钟前的00:53 UTC
风速8节,风向西转西北
温度 29°C
湿度 16%
气压 1016 hPa
能見度: 16.1公里
天空无云

METAR: KTWF 130053Z 30008KT 10SM CLR 29/01 A2999 RMK AO2 SLP098 T02890006

时间: 19:55 (01:55 UTC)

预报

该预报发布于2小时和35分钟前的23:20 UTC
预报有效从13日的 00点(UTC)到 13日的 24点(UTC)
风速10节,风向西北
能見度: 10公里
天空无云
从 13日的 0400点(UTC)
风速9节,风向西南
能見度: 10公里
天空无云
从 13日的 1500点(UTC)
风速6节,风向
能見度: 10公里
散云层高于15000英尺
从 13日的 1700点(UTC)
风速6节,风向北转东北
能見度: 10公里
散云层高于15000英尺

TAF: KTWF 122320Z 1300/1324 32010KT P6SM SKC FM130400 22009KT P6SM SKC FM131500 35006KT P6SM SCT150 FM131700 02006KT P6SM SCT150

超过4000个机场的气象观测和天气预报(METAR&TAF报告)。

可查询的气象台以黄色和红色小点在地图上表示。

将鼠标移到小点上方,可查看气象台名称。

然后点击查看天气观测和预报。

如需切换地图:点击带黑十字的绿色按钮放大地图;点击带横线的绿色按钮缩小地图;或者点击绿色箭头查看邻近地区的地图。


METAR-TAF: